Chuhuyiv, Ukraine
Current Conditions -  °F | °C
As of 3:30 PM on Thursday 29 Jan 2015 (Local Time) from UKHH Reporting Station
Haze Haze  
Wind Chill: 23°   Ceiling: 200
Heat Index: 32°   Visibility: 0.75mi
Dew Point: 30°   Wind: 11mph
Humidity: 93%   Direction: 140°SE
Pressure: 29.83"   Gusts: NA
Location:  49.84°N, 36.69°E
Report Text: UKHH 291230Z 14005MPS 1200 R07/1200D BR OVC002 M00/M01 Q1010 07812050 TEMPO 0300 -FZDZ FZFG OVC001
Loading
Personal Weather Stations






























Interactive Weather Map New forecast layout! Learn more

10-Day Weather Forecast

Advertisements
Track Severe Weather on mobile